Time;durP1;ratioP1;P1;durP2;ratioP2;P2;SDS_P1;SDS_P2;PMS_P1;PMS_P2;Temp;Humidity;BMP_temperature;BMP_pressure;BME280_temperature;BME280_humidity;BME280_pressure;Samples;Min_cycle;Max_cycle;Signal;HPM_P1;HPM_P2
2024/03/17 00:00:22;;;;;;;1.07;0.90;;;22.10;98.60;;;;;;5034365;28;20211;-39
2024/03/17 00:02:49;;;;;;;0.90;0.70;;;21.30;96.60;;;;;;5035620;28;20500;-39
2024/03/17 00:05:19;;;;;;;1.45;0.80;;;21.40;96.50;;;;;;5036611;28;20210;-39
2024/03/17 00:07:50;;;;;;;1.50;1.00;;;21.40;96.30;;;;;;5037457;28;20194;-40
2024/03/17 00:10:35;;;;;;;1.00;0.80;;;21.40;96.30;;;;;;5029641;28;20712;-39
2024/03/17 00:13:14;;;;;;;1.42;0.90;;;21.40;96.40;;;;;;5037361;28;20203;-39
2024/03/17 00:15:45;;;;;;;2.67;1.05;;;21.30;96.40;;;;;;5040104;28;20328;-40
2024/03/17 00:18:16;;;;;;;1.98;1.05;;;21.30;96.40;;;;;;5020847;28;20222;-39
2024/03/17 00:20:51;;;;;;;3.05;1.00;;;21.20;96.40;;;;;;5036624;28;20655;-39
2024/03/17 00:23:21;;;;;;;0.97;0.70;;;21.00;96.30;;;;;;5038851;28;20201;-39
2024/03/17 00:25:52;;;;;;;1.20;0.90;;;21.20;96.40;;;;;;5037866;28;20457;-39
2024/03/17 00:28:24;;;;;;;0.90;0.80;;;21.00;96.30;;;;;;5028160;28;20201;-39
2024/03/17 00:30:51;;;;;;;1.10;0.80;;;21.10;96.40;;;;;;5023809;28;20218;-38
2024/03/17 00:33:22;;;;;;;1.25;0.77;;;20.90;96.30;;;;;;5038126;28;20449;-39
2024/03/17 00:35:51;;;;;;;1.00;0.80;;;21.00;96.40;;;;;;5039094;28;20191;-39
2024/03/17 00:38:22;;;;;;;1.00;0.80;;;21.00;96.40;;;;;;5036790;28;20213;-39
2024/03/17 00:40:50;;;;;;;1.42;1.00;;;20.90;96.40;;;;;;5040892;28;20417;-39
2024/03/17 00:43:25;;;;;;;1.38;1.00;;;21.00;96.40;;;;;;5037543;28;20209;-39
2024/03/17 00:45:58;;;;;;;1.10;0.90;;;21.10;96.40;;;;;;5040455;28;21395;-39
2024/03/17 00:48:24;;;;;;;1.15;0.80;;;21.10;96.40;;;;;;5043640;28;20722;-39
2024/03/17 00:51:05;;;;;;;1.93;0.90;;;21.00;96.40;;;;;;5036169;28;20214;-39
2024/03/17 00:53:41;;;;;;;1.10;0.70;;;20.90;96.40;;;;;;5036449;28;20195;-39
2024/03/17 00:56:10;;;;;;;1.40;0.88;;;21.00;96.50;;;;;;5040839;28;20836;-39
2024/03/17 00:58:42;;;;;;;1.20;0.90;;;21.00;96.50;;;;;;5039042;28;20202;-39
2024/03/17 01:01:15;;;;;;;1.25;0.80;;;20.80;96.50;;;;;;5039660;28;20226;-39
2024/03/17 01:03:47;;;;;;;1.10;0.70;;;20.90;96.60;;;;;;5043364;28;20336;-39
2024/03/17 01:06:13;;;;;;;1.10;0.90;;;20.90;96.70;;;;;;5044926;28;20228;-39
2024/03/17 01:08:43;;;;;;;0.90;0.77;;;20.80;96.70;;;;;;5038717;28;20199;-39
2024/03/17 01:11:18;;;;;;;1.20;0.70;;;20.50;96.60;;;;;;5031703;28;20558;-39
2024/03/17 01:13:54;;;;;;;0.90;0.70;;;20.60;96.70;;;;;;5037994;28;20622;-39
2024/03/17 01:16:24;;;;;;;1.02;0.70;;;20.60;96.80;;;;;;5045396;28;20191;-39
2024/03/17 01:19:04;;;;;;;1.10;0.82;;;20.40;96.70;;;;;;5043952;28;20202;-39
2024/03/17 01:21:37;;;;;;;1.10;0.90;;;20.70;97.00;;;;;;5042678;28;20352;-39
2024/03/17 01:24:12;;;;;;;1.00;0.77;;;20.70;97.10;;;;;;5041165;28;20198;-39
2024/03/17 01:26:38;;;;;;;1.00;0.70;;;20.40;97.10;;;;;;5036753;28;20190;-39
2024/03/17 01:29:11;;;;;;;1.83;0.80;;;20.30;97.30;;;;;;5044773;28;21223;-39
2024/03/17 01:31:39;;;;;;;1.40;0.75;;;20.30;98.30;;;;;;5043506;28;20245;-39
2024/03/17 01:34:09;;;;;;;0.90;0.70;;;20.60;99.40;;;;;;5039340;28;20202;-38
2024/03/17 01:36:44;;;;;;;1.00;0.70;;;20.60;99.50;;;;;;5042243;28;20209;-39
2024/03/17 01:39:14;;;;;;;1.00;0.80;;;20.40;99.70;;;;;;5046214;28;20199;-38
2024/03/17 01:41:44;;;;;;;1.00;0.77;;;20.60;99.50;;;;;;5041838;28;20641;-39
2024/03/17 01:44:30;;;;;;;1.10;0.80;;;20.30;99.40;;;;;;5047348;28;20206;-39
2024/03/17 01:47:04;;;;;;;1.10;0.80;;;20.40;99.60;;;;;;5040726;28;20202;-38
2024/03/17 01:49:47;;;;;;;1.85;1.20;;;20.40;99.70;;;;;;5040556;28;20260;-39
2024/03/17 01:52:18;;;;;;;1.20;1.05;;;20.20;99.70;;;;;;5030360;28;20225;-39
2024/03/17 01:54:49;;;;;;;1.52;1.05;;;20.30;99.90;;;;;;5047021;28;21371;-39
2024/03/17 01:57:15;;;;;;;1.23;0.80;;;20.10;99.90;;;;;;5041933;28;20222;-39
2024/03/17 01:59:44;;;;;;;1.30;0.90;;;20.10;99.90;;;;;;5046136;28;20198;-40
2024/03/17 02:02:10;;;;;;;1.10;0.80;;;20.40;99.90;;;;;;5040223;28;20207;-40
2024/03/17 02:04:40;;;;;;;0.98;0.75;;;;;;;;;;5039339;28;20206;-40
2024/03/17 02:07:13;;;;;;;1.20;0.90;;;;;;;;;;5025432;28;20265;-40
2024/03/17 02:09:40;;;;;;;1.00;0.80;;;;;;;;;;5035218;28;20199;-39
2024/03/17 02:12:15;;;;;;;1.75;0.90;;;;;;;;;;5040198;28;20223;-39
2024/03/17 02:14:44;;;;;;;1.00;0.75;;;;;;;;;;5040945;28;20597;-38
2024/03/17 02:17:11;;;;;;;1.17;0.90;;;;;;;;;;5041251;28;20249;-39
2024/03/17 02:19:46;;;;;;;1.00;0.85;;;20.00;99.90;;;;;;5042566;28;20198;-39
2024/03/17 02:22:19;;;;;;;1.25;0.80;;;20.30;99.90;;;;;;5030404;28;20206;-39
2024/03/17 02:24:48;;;;;;;1.35;0.93;;;20.00;98.50;;;;;;5035010;28;20206;-39
2024/03/17 02:27:19;;;;;;;1.52;0.90;;;20.00;99.90;;;;;;5031763;28;20203;-39
2024/03/17 02:29:48;;;;;;;1.20;1.00;;;20.20;99.90;;;;;;5037290;28;20195;-39
2024/03/17 02:32:22;;;;;;;3.50;1.92;;;20.00;99.90;;;;;;5038739;28;20571;-39
2024/03/17 02:34:53;;;;;;;1.50;1.20;;;20.00;99.90;;;;;;5039124;28;20195;-39
2024/03/17 02:37:23;;;;;;;1.10;0.90;;;19.90;99.90;;;;;;5035032;28;20246;-38
2024/03/17 02:39:55;;;;;;;1.50;0.82;;;20.10;99.90;;;;;;5041052;28;20203;-39
2024/03/17 02:42:24;;;;;;;1.20;0.90;;;19.90;99.90;;;;;;5039342;28;20206;-39
2024/03/17 02:44:57;;;;;;;1.10;0.80;;;19.80;99.90;;;;;;5036263;28;20312;-38
2024/03/17 02:47:41;;;;;;;1.10;0.95;;;19.80;99.90;;;;;;5038536;28;20276;-39
2024/03/17 02:50:15;;;;;;;1.38;0.80;;;20.00;99.90;;;;;;5042419;28;20667;-39
2024/03/17 02:52:46;;;;;;;1.05;0.82;;;20.00;99.90;;;;;;5030030;28;20222;-38
2024/03/17 02:55:20;;;;;;;1.00;0.80;;;20.10;99.90;;;;;;5037532;28;20207;-38
2024/03/17 02:57:51;;;;;;;1.00;0.80;;;19.80;99.90;;;;;;5043885;28;20771;-39
2024/03/17 03:00:21;;;;;;;1.00;0.80;;;20.00;99.90;;;;;;5041497;28;20198;-38
2024/03/17 03:03:04;;;;;;;2.25;1.05;;;20.00;99.90;;;;;;5041130;28;20665;-39
2024/03/17 03:05:38;;;;;;;1.08;0.77;;;20.00;99.90;;;;;;5042258;28;20194;-39
2024/03/17 03:08:22;;;;;;;1.35;0.90;;;19.90;99.90;;;;;;5037662;28;20190;-38
2024/03/17 03:10:49;;;;;;;1.20;1.00;;;19.70;99.90;;;;;;5042240;28;20191;-39
2024/03/17 03:13:16;;;;;;;1.13;0.80;;;19.90;99.90;;;;;;5041825;28;20203;-39
2024/03/17 03:15:43;;;;;;;1.00;0.80;;;19.90;99.90;;;;;;5042878;28;20207;-39
2024/03/17 03:18:13;;;;;;;1.20;0.90;;;19.80;99.90;;;;;;5043631;28;20210;-39
2024/03/17 03:20:53;;;;;;;1.20;0.90;;;19.90;99.90;;;;;;5045519;28;20195;-39
2024/03/17 03:23:26;;;;;;;1.10;0.95;;;19.60;99.90;;;;;;5043093;28;20199;-39
2024/03/17 03:26:00;;;;;;;1.20;0.80;;;19.60;99.90;;;;;;5041047;28;20611;-39
2024/03/17 03:28:40;;;;;;;1.27;1.00;;;19.60;99.90;;;;;;5038086;28;20194;-39
2024/03/17 03:31:16;;;;;;;1.10;0.80;;;19.60;99.90;;;;;;5042336;28;20727;-39
2024/03/17 03:33:46;;;;;;;1.30;0.90;;;19.70;99.90;;;;;;5044266;28;20201;-39
2024/03/17 03:36:20;;;;;;;1.00;0.75;;;19.60;99.90;;;;;;5042891;28;20194;-38
2024/03/17 03:38:59;;;;;;;1.30;0.82;;;19.50;99.90;;;;;;5038925;28;20197;-39
2024/03/17 03:41:30;;;;;;;0.90;0.70;;;19.50;99.90;;;;;;5042926;28;20487;-39
2024/03/17 03:44:09;;;;;;;;;;;;;;;;;;;;;
2024/03/17 03:46:40;;;;;;;1.10;1.00;;;19.60;99.90;;;;;;5044823;28;20650;-39
2024/03/17 03:49:09;;;;;;;1.17;0.80;;;19.70;99.90;;;;;;5043841;28;20613;-39
2024/03/17 03:51:39;;;;;;;1.13;0.80;;;19.50;99.90;;;;;;5040736;28;20240;-38
2024/03/17 03:54:08;;;;;;;1.10;0.90;;;19.70;99.90;;;;;;5042348;28;20194;-39
2024/03/17 03:56:37;;;;;;;1.65;0.98;;;19.40;99.90;;;;;;5046182;28;20202;-38
2024/03/17 03:59:11;;;;;;;1.10;0.90;;;19.40;99.90;;;;;;5046359;28;20202;-39
2024/03/17 04:01:44;;;;;;;1.02;0.80;;;19.60;99.90;;;;;;5044409;28;20194;-39
2024/03/17 04:04:13;;;;;;;1.30;1.15;;;19.40;99.90;;;;;;5045203;28;20198;-39
2024/03/17 04:06:43;;;;;;;2.33;1.42;;;19.50;99.90;;;;;;5046074;28;20210;-40
2024/03/17 04:09:13;;;;;;;1.80;0.88;;;19.50;99.90;;;;;;5043528;28;20289;-39
2024/03/17 04:11:42;;;;;;;1.10;0.90;;;19.60;99.90;;;;;;5036846;28;20223;-39
2024/03/17 04:14:16;;;;;;;0.98;0.75;;;19.50;99.90;;;;;;5043106;28;20194;-39
2024/03/17 04:16:49;;;;;;;1.10;0.80;;;19.60;99.90;;;;;;5043504;28;20197;-38
2024/03/17 04:19:19;;;;;;;1.40;1.10;;;19.40;99.90;;;;;;5044383;28;20742;-39
2024/03/17 04:21:51;;;;;;;1.38;1.00;;;19.60;99.90;;;;;;5044048;28;20749;-39
2024/03/17 04:24:30;;;;;;;1.13;0.88;;;19.30;99.90;;;;;;5044014;28;20222;-38
2024/03/17 04:27:11;;;;;;;1.10;0.90;;;19.40;99.90;;;;;;5036017;28;20195;-39
2024/03/17 04:29:45;;;;;;;1.40;1.00;;;19.50;99.90;;;;;;5040569;28;20285;-39
2024/03/17 04:32:12;;;;;;;1.20;0.98;;;19.30;99.90;;;;;;5037172;28;20288;-38
2024/03/17 04:34:43;;;;;;;0.90;0.70;;;19.30;99.90;;;;;;5036624;28;20191;-39
2024/03/17 04:37:17;;;;;;;1.23;0.90;;;19.40;99.90;;;;;;5033414;28;20198;-38
2024/03/17 04:39:48;;;;;;;1.00;0.90;;;19.40;99.90;;;;;;5037592;28;20708;-39
2024/03/17 04:42:23;;;;;;;1.00;0.80;;;19.40;99.90;;;;;;5040293;28;20214;-39
2024/03/17 04:44:51;;;;;;;1.25;1.10;;;19.50;99.90;;;;;;5034757;28;20210;-39
2024/03/17 04:47:23;;;;;;;1.17;0.93;;;19.30;99.90;;;;;;5023720;28;20198;-39
2024/03/17 04:49:52;;;;;;;1.00;0.80;;;19.50;99.90;;;;;;5034879;28;20191;-39
2024/03/17 04:52:20;;;;;;;1.40;1.10;;;19.20;99.90;;;;;;5033922;28;20236;-39
2024/03/17 04:55:01;;;;;;;1.73;1.00;;;19.40;99.90;;;;;;5039721;28;20199;-38
2024/03/17 04:57:29;;;;;;;1.30;1.00;;;19.40;99.90;;;;;;5039872;28;20202;-39
2024/03/17 05:00:02;;;;;;;1.00;0.80;;;19.40;99.90;;;;;;5038578;28;20202;-38
2024/03/17 05:02:32;;;;;;;2.17;0.80;;;19.30;99.90;;;;;;5032250;28;20214;-39
2024/03/17 05:05:00;;;;;;;1.60;1.08;;;19.20;99.90;;;;;;5036767;28;20656;-38
2024/03/17 05:07:29;;;;;;;1.00;0.80;;;19.20;99.90;;;;;;5037614;28;20194;-40
2024/03/17 05:09:58;;;;;;;1.52;0.90;;;19.30;99.90;;;;;;5040048;28;20206;-38
2024/03/17 05:12:28;;;;;;;1.35;0.95;;;19.40;99.90;;;;;;5037714;28;20218;-38
2024/03/17 05:14:57;;;;;;;1.02;0.88;;;19.40;99.90;;;;;;5039448;28;20202;-39
2024/03/17 05:17:30;;;;;;;1.10;0.90;;;19.50;99.90;;;;;;5037409;28;20602;-39
2024/03/17 05:19:58;;;;;;;1.40;1.00;;;19.30;99.90;;;;;;5031222;28;20701;-39
2024/03/17 05:22:37;;;;;;;1.10;0.80;;;19.20;99.90;;;;;;5042663;28;20222;-39
2024/03/17 05:25:10;;;;;;;1.40;1.25;;;19.10;99.90;;;;;;5037191;28;20275;-38
2024/03/17 05:27:43;;;;;;;1.20;1.00;;;19.30;99.90;;;;;;5032479;28;20203;-38
2024/03/17 05:30:13;;;;;;;1.00;0.90;;;19.40;99.90;;;;;;5035473;28;20342;-39
2024/03/17 05:32:44;;;;;;;1.10;0.90;;;19.10;99.90;;;;;;5039685;28;20219;-38
2024/03/17 05:35:13;;;;;;;1.27;1.00;;;19.10;99.90;;;;;;5030615;28;20202;-38
2024/03/17 05:37:43;;;;;;;1.42;0.93;;;19.30;99.90;;;;;;5031660;28;20289;-39
2024/03/17 05:40:16;;;;;;;1.10;0.80;;;19.10;99.90;;;;;;5035463;28;20209;-38
2024/03/17 05:42:51;;;;;;;1.35;1.08;;;19.20;99.90;;;;;;5040315;28;20203;-38
2024/03/17 05:45:25;;;;;;;1.23;1.00;;;19.40;99.90;;;;;;5037338;28;20281;-38
2024/03/17 05:47:59;;;;;;;2.10;1.30;;;19.30;99.90;;;;;;5032722;28;20298;-39
2024/03/17 05:50:27;;;;;;;1.10;0.90;;;19.30;99.90;;;;;;5043244;28;20195;-39
2024/03/17 05:53:02;;;;;;;1.20;1.10;;;19.30;99.90;;;;;;5043209;28;20301;-39
2024/03/17 05:55:36;;;;;;;1.20;0.88;;;19.30;99.90;;;;;;5042988;28;20633;-39
2024/03/17 05:58:05;;;;;;;1.30;1.00;;;19.20;99.90;;;;;;5038533;28;20199;-40
2024/03/17 06:00:42;;;;;;;1.10;1.00;;;19.30;99.90;;;;;;5048109;28;20248;-39
2024/03/17 06:03:16;;;;;;;1.23;1.13;;;19.10;99.90;;;;;;5038783;28;20553;-40
2024/03/17 06:05:53;;;;;;;1.20;1.08;;;19.30;99.90;;;;;;5044737;28;20593;-37
2024/03/17 06:08:21;;;;;;;1.38;0.88;;;19.10;99.90;;;;;;5044774;28;20194;-39
2024/03/17 06:10:59;;;;;;;1.40;0.98;;;19.30;99.90;;;;;;5042610;28;20274;-39
2024/03/17 06:13:50;;;;;;;1.10;0.82;;;19.30;99.90;;;;;;5041891;28;20582;-39
2024/03/17 06:16:20;;;;;;;1.20;0.90;;;19.30;99.90;;;;;;5036801;28;20221;-39
2024/03/17 06:18:51;;;;;;;1.40;1.00;;;19.10;99.90;;;;;;5046496;28;20195;-38
2024/03/17 06:21:21;;;;;;;1.40;1.02;;;19.10;99.90;;;;;;5038630;28;20240;-39
2024/03/17 06:23:56;;;;;;;1.13;0.90;;;19.10;99.90;;;;;;5042275;28;20211;-39
2024/03/17 06:26:38;;;;;;;1.30;0.90;;;19.10;99.90;;;;;;5041355;28;20320;-39
2024/03/17 06:31:52;;;;;;;1.40;1.10;;;19.00;99.90;;;;;;5039093;28;20202;-39
2024/03/17 06:34:24;;;;;;;1.25;1.02;;;19.00;99.90;;;;;;5040358;28;20194;-39
2024/03/17 06:36:56;;;;;;;1.20;0.90;;;19.10;99.90;;;;;;5038198;28;20195;-39
2024/03/17 06:39:41;;;;;;;1.60;1.05;;;19.20;99.90;;;;;;5031279;28;20544;-39
2024/03/17 06:42:11;;;;;;;1.55;0.95;;;19.20;99.90;;;;;;5044920;28;20198;-39
2024/03/17 06:44:39;;;;;;;1.50;0.90;;;19.00;99.90;;;;;;5046496;28;20194;-39
2024/03/17 06:47:19;;;;;;;1.48;1.10;;;19.00;99.90;;;;;;5039220;28;20771;-39
2024/03/17 06:49:49;;;;;;;1.42;1.10;;;19.10;99.90;;;;;;5042010;28;20194;-39
2024/03/17 06:52:30;;;;;;;1.17;1.00;;;19.30;99.90;;;;;;5033134;28;20753;-38
2024/03/17 06:54:59;;;;;;;4.05;1.08;;;19.30;99.90;;;;;;5041804;28;20677;-38
2024/03/17 06:57:28;;;;;;;1.30;1.10;;;19.10;99.90;;;;;;5035035;28;20198;-38
2024/03/17 07:00:05;;;;;;;1.60;0.90;;;19.40;99.90;;;;;;5044230;28;20662;-37
2024/03/17 07:02:35;;;;;;;4.38;1.10;;;19.40;99.90;;;;;;5034327;28;20568;-38
2024/03/17 07:05:23;;;;;;;2.47;1.13;;;19.10;99.90;;;;;;5036384;28;20256;-38
2024/03/17 07:07:52;;;;;;;2.35;1.30;;;19.30;99.90;;;;;;5035411;28;20211;-39
2024/03/17 07:10:28;;;;;;;1.92;1.25;;;19.30;99.90;;;;;;5039511;28;20788;-39
2024/03/17 07:13:04;;;;;;;2.20;1.48;;;19.20;99.90;;;;;;5041757;28;20210;-38
2024/03/17 07:15:43;;;;;;;1.77;1.20;;;19.30;99.90;;;;;;5041114;28;20194;-38
2024/03/17 07:18:13;;;;;;;2.83;1.00;;;19.50;99.90;;;;;;5034705;28;20202;-38
2024/03/17 07:20:42;;;;;;;2.05;1.60;;;19.30;99.90;;;;;;5035493;28;20670;-37
2024/03/17 07:23:11;;;;;;;3.35;1.48;;;19.50;99.90;;;;;;5033412;28;20241;-39
2024/03/17 07:25:40;;;;;;;1.60;1.45;;;19.60;99.90;;;;;;5043347;28;20203;-39
2024/03/17 07:28:14;;;;;;;3.22;1.58;;;19.60;99.90;;;;;;5039286;28;20199;-39
2024/03/17 07:30:51;;;;;;;1.20;1.10;;;19.50;99.90;;;;;;5037241;28;20723;-39
2024/03/17 07:33:21;;;;;;;3.75;1.40;;;;;;;;;;5041108;28;20758;-39
2024/03/17 07:35:52;;;;;;;1.50;1.33;;;;;;;;;;5043846;28;21033;-39
2024/03/17 07:38:25;;;;;;;1.70;1.30;;;;;;;;;;5030665;28;20202;-39
2024/03/17 07:41:11;;;;;;;1.73;1.10;;;19.80;99.90;;;;;;5041924;28;20211;-39
2024/03/17 07:43:40;;;;;;;3.92;1.75;;;19.80;99.90;;;;;;5043160;28;20284;-38
2024/03/17 07:46:15;;;;;;;2.10;1.27;;;19.90;99.90;;;;;;5042974;28;20197;-39
2024/03/17 07:48:43;;;;;;;4.10;1.35;;;20.00;99.50;;;;;;5043386;28;20198;-39
2024/03/17 07:51:17;;;;;;;3.85;1.55;;;20.00;97.90;;;;;;5041183;28;20210;-38
2024/03/17 07:53:47;;;;;;;3.57;1.20;;;20.10;96.30;;;;;;5033430;28;20219;-38
2024/03/17 07:56:20;;;;;;;3.05;1.10;;;20.20;95.80;;;;;;5040335;28;20475;-38
2024/03/17 07:58:50;;;;;;;2.30;1.15;;;20.20;95.60;;;;;;5047922;28;20212;-39
2024/03/17 08:01:29;;;;;;;;;;;;;;;;;;;;;
2024/03/17 08:04:02;;;;;;;1.55;1.45;;;20.20;94.20;;;;;;5037071;28;20199;-39
2024/03/17 08:06:35;;;;;;;1.75;1.55;;;20.30;93.90;;;;;;5039116;28;20224;-40
2024/03/17 08:09:03;;;;;;;1.70;1.20;;;20.30;93.60;;;;;;5039238;28;20195;-39
2024/03/17 08:11:30;;;;;;;1.38;1.10;;;20.40;93.30;;;;;;5046223;28;20280;-39
2024/03/17 08:14:02;;;;;;;2.10;1.42;;;20.40;92.90;;;;;;5041722;28;20211;-39
2024/03/17 08:16:29;;;;;;;1.63;1.20;;;20.50;93.00;;;;;;5043660;28;20790;-38
2024/03/17 08:18:56;;;;;;;1.50;1.10;;;20.40;92.70;;;;;;5041387;28;20198;-39
2024/03/17 08:21:29;;;;;;;1.95;1.27;;;20.50;92.50;;;;;;5038398;28;20465;-39
2024/03/17 08:23:56;;;;;;;1.40;1.30;;;20.60;92.40;;;;;;5040753;28;20206;-39
2024/03/17 08:26:40;;;;;;;2.70;1.40;;;20.40;92.30;;;;;;5033428;28;20198;-39
2024/03/17 08:29:10;;;;;;;1.40;1.20;;;20.40;92.20;;;;;;5041156;28;20201;-39
2024/03/17 08:31:45;;;;;;;1.40;1.23;;;20.50;92.00;;;;;;5039812;28;20253;-39
2024/03/17 08:34:23;;;;;;;2.25;1.30;;;20.40;91.80;;;;;;5037946;28;20236;-39
2024/03/17 08:36:57;;;;;;;4.40;1.42;;;20.50;91.70;;;;;;5031708;28;20742;-39
2024/03/17 08:39:25;;;;;;;1.77;1.30;;;20.50;91.60;;;;;;5040443;28;20280;-39
2024/03/17 08:41:56;;;;;;;1.50;1.40;;;20.60;91.60;;;;;;5037969;28;20192;-39
2024/03/17 08:44:24;;;;;;;1.40;1.30;;;20.60;91.60;;;;;;5043224;28;20202;-39
2024/03/17 08:46:59;;;;;;;2.00;1.40;;;20.60;91.60;;;;;;5038314;28;20202;-38
2024/03/17 08:49:35;;;;;;;1.30;1.20;;;20.50;91.40;;;;;;5030388;28;20659;-38
2024/03/17 08:52:11;;;;;;;1.40;1.10;;;20.70;91.50;;;;;;5035307;28;20341;-38
2024/03/17 08:54:40;;;;;;;2.58;1.30;;;20.50;91.30;;;;;;5044161;28;20260;-38
2024/03/17 08:57:16;;;;;;;1.77;1.40;;;20.70;91.40;;;;;;5041612;28;20664;-38
2024/03/17 08:59:56;;;;;;;1.60;1.45;;;20.70;91.20;;;;;;5023051;28;20203;-42
2024/03/17 09:02:32;;;;;;;1.20;1.00;;;20.60;91.00;;;;;;5035099;28;20874;-40
2024/03/17 09:04:59;;;;;;;1.20;1.10;;;20.70;90.90;;;;;;5035267;28;20194;-39
2024/03/17 09:07:30;;;;;;;1.50;1.20;;;20.60;90.50;;;;;;5024528;28;20194;-40
2024/03/17 09:10:00;;;;;;;1.60;1.37;;;20.70;90.50;;;;;;5036426;28;20198;-39
2024/03/17 09:12:31;;;;;;;1.42;1.33;;;20.70;90.20;;;;;;5038832;28;20996;-39
2024/03/17 09:15:03;;;;;;;1.55;1.40;;;20.90;90.50;;;;;;5039925;28;20226;-39
2024/03/17 09:17:36;;;;;;;1.25;1.10;;;20.90;90.20;;;;;;5040132;28;20291;-38
2024/03/17 09:20:11;;;;;;;1.30;1.20;;;21.00;90.00;;;;;;5039966;28;20278;-39
2024/03/17 09:22:43;;;;;;;1.87;1.20;;;21.10;90.80;;;;;;5035185;28;20468;-39
2024/03/17 09:25:14;;;;;;;1.50;1.40;;;21.10;79.10;;;;;;5029753;28;20476;-39
2024/03/17 09:27:50;;;;;;;1.30;1.10;;;21.10;79.80;;;;;;5039935;28;20499;-39
2024/03/17 09:30:27;;;;;;;1.10;1.00;;;21.10;79.20;;;;;;5040895;28;20963;-39
2024/03/17 09:33:01;;;;;;;1.40;1.30;;;21.20;79.30;;;;;;5042290;28;20469;-39
2024/03/17 09:35:38;;;;;;;1.43;1.33;;;21.20;78.40;;;;;;5042122;28;20448;-39
2024/03/17 09:38:21;;;;;;;1.60;1.10;;;21.30;78.60;;;;;;5043516;28;20456;-38
2024/03/17 09:40:57;;;;;;;2.63;1.80;;;21.80;81.60;;;;;;5050013;28;20453;-39
2024/03/17 09:43:35;;;;;;;1.40;1.30;;;21.30;83.40;;;;;;5041832;28;21283;-39
2024/03/17 09:46:12;;;;;;;1.20;1.10;;;21.30;81.00;;;;;;5038832;28;20472;-39
2024/03/17 09:48:42;;;;;;;3.00;1.30;;;21.40;77.70;;;;;;5046833;28;20452;-39
2024/03/17 09:51:18;;;;;;;1.45;1.08;;;21.30;97.80;;;;;;5052253;28;20999;-39
2024/03/17 09:53:56;;;;;;;1.97;1.10;;;21.50;97.20;;;;;;5045539;28;20701;-39
2024/03/17 09:56:28;;;;;;;1.17;1.07;;;21.50;97.70;;;;;;5043604;28;20978;-39
2024/03/17 09:59:02;;;;;;;1.40;1.10;;;;;;;;;;5048942;28;20997;-39
2024/03/17 10:01:42;;;;;;;2.73;1.10;;;21.60;76.00;;;;;;5036618;28;20459;-39
2024/03/17 10:04:10;;;;;;;1.50;1.30;;;21.60;76.50;;;;;;5039214;28;20519;-38
2024/03/17 10:06:46;;;;;;;2.80;1.30;;;21.60;78.20;;;;;;5033888;28;20509;-40
2024/03/17 10:09:27;;;;;;;1.50;1.20;;;21.70;76.40;;;;;;5042650;28;20807;-39
2024/03/17 10:12:00;;;;;;;1.23;1.00;;;21.70;76.40;;;;;;5035930;28;20456;-39
2024/03/17 10:14:31;;;;;;;1.80;1.30;;;21.70;76.10;;;;;;5043939;28;20477;-39
2024/03/17 10:17:06;;;;;;;1.20;0.90;;;21.70;75.90;;;;;;5042699;28;20821;-39
2024/03/17 10:19:39;;;;;;;1.20;1.00;;;21.70;75.90;;;;;;5040913;28;20464;-39
2024/03/17 10:22:15;;;;;;;2.60;1.20;;;21.80;75.50;;;;;;5033831;28;21084;-39
2024/03/17 10:25:03;;;;;;;1.17;0.93;;;21.80;75.30;;;;;;5039741;28;20462;-39
2024/03/17 10:27:33;;;;;;;1.30;1.20;;;21.80;75.50;;;;;;5037708;28;20468;-39
2024/03/17 10:30:05;;;;;;;1.27;1.13;;;21.80;75.40;;;;;;5031803;28;20206;-39
2024/03/17 10:32:37;;;;;;;1.47;1.23;;;21.90;75.30;;;;;;5027670;28;20470;-38
2024/03/17 10:35:26;;;;;;;1.30;1.20;;;21.90;75.30;;;;;;5035329;28;20517;-38
2024/03/17 10:37:58;;;;;;;1.33;1.23;;;21.90;74.90;;;;;;5030956;28;20464;-39
2024/03/17 10:40:29;;;;;;;1.50;1.13;;;21.90;74.80;;;;;;5037359;28;20544;-39
2024/03/17 10:43:00;;;;;;;1.20;1.10;;;22.00;75.00;;;;;;5039503;28;20801;-38
2024/03/17 10:45:35;;;;;;;1.70;1.00;;;22.00;74.80;;;;;;5043149;28;20457;-39
2024/03/17 10:48:11;;;;;;;1.20;1.00;;;22.00;74.60;;;;;;5036671;28;20461;-39
2024/03/17 10:50:44;;;;;;;1.10;0.90;;;22.00;74.50;;;;;;5045883;28;20555;-39
2024/03/17 10:53:27;;;;;;;1.20;0.90;;;22.00;74.30;;;;;;5041800;28;20896;-39
2024/03/17 10:56:11;;;;;;;1.60;1.20;;;22.10;74.10;;;;;;5032403;28;20464;-39
2024/03/17 10:58:50;;;;;;;1.30;1.17;;;22.10;74.50;;;;;;5028160;28;20464;-39
2024/03/17 11:01:25;;;;;;;1.20;1.00;;;22.10;74.10;;;;;;5042085;28;20542;-39
2024/03/17 11:03:57;;;;;;;1.40;0.90;;;22.10;74.80;;;;;;5037270;28;20460;-38
2024/03/17 11:06:28;;;;;;;1.50;1.20;;;22.10;74.30;;;;;;5031135;28;20472;-38
2024/03/17 11:09:04;;;;;;;1.10;1.00;;;22.20;74.50;;;;;;5037899;28;20891;-39
2024/03/17 11:11:39;;;;;;;1.17;0.90;;;22.20;73.60;;;;;;5030620;28;20452;-39
2024/03/17 11:14:25;;;;;;;1.30;1.20;;;22.20;75.00;;;;;;5043486;28;20488;-39
2024/03/17 11:16:58;;;;;;;1.60;1.10;;;22.20;73.70;;;;;;5044730;28;20462;-39
2024/03/17 11:19:40;;;;;;;1.20;1.03;;;22.20;73.30;;;;;;5043628;28;20464;-39
2024/03/17 11:22:56;;;;;;;1.10;0.90;;;22.30;73.20;;;;;;5043482;28;20654;-38
2024/03/17 11:25:54;;;;;;;1.13;0.90;;;22.30;73.10;;;;;;4983179;28;20558;-39
2024/03/17 11:28:55;;;;;;;1.30;1.10;;;22.30;73.00;;;;;;4946947;28;20474;-39
2024/03/17 11:31:52;;;;;;;1.17;1.00;;;22.30;72.80;;;;;;5036615;28;20815;-39
2024/03/17 11:34:47;;;;;;;1.40;1.20;;;22.30;72.40;;;;;;5047034;28;20486;-39
2024/03/17 11:37:52;;;;;;;1.47;1.37;;;22.30;72.10;;;;;;5036791;28;20460;-39
2024/03/17 11:40:36;;;;;;;1.27;1.17;;;22.30;72.50;;;;;;5014990;28;20894;-38
2024/03/17 11:43:23;;;;;;;1.33;1.10;;;22.40;72.60;;;;;;5032813;28;20575;-39
2024/03/17 11:46:14;;;;;;;1.77;1.13;;;22.40;72.80;;;;;;5039014;28;20472;-39
2024/03/17 11:48:44;;;;;;;1.50;1.13;;;22.40;73.20;;;;;;5044239;28;20457;-39
2024/03/17 11:51:11;;;;;;;4.33;0.93;;;22.40;72.70;;;;;;5028805;28;20518;-39
2024/03/17 11:53:50;;;;;;;3.30;1.40;;;22.40;73.20;;;;;;5032881;28;20457;-39
2024/03/17 11:56:27;;;;;;;1.30;1.10;;;22.40;73.30;;;;;;5033463;28;20731;-39
2024/03/17 11:59:09;;;;;;;1.40;1.00;;;22.40;73.20;;;;;;5043007;28;21024;-39
2024/03/17 12:01:40;;;;;;;1.33;1.00;;;22.40;73.00;;;;;;5036739;28;20444;-39
2024/03/17 12:04:27;;;;;;;;;;;;;;;;;;;;;
2024/03/17 12:07:12;;;;;;;2.50;1.20;;;22.50;73.10;;;;;;5036447;28;20449;-39
2024/03/17 12:09:49;;;;;;;1.00;0.80;;;22.50;72.90;;;;;;5024545;28;20463;-39
2024/03/17 12:12:34;;;;;;;3.80;1.10;;;22.50;72.80;;;;;;5043400;28;20891;-39
2024/03/17 12:15:23;;;;;;;2.13;1.00;;;22.50;72.80;;;;;;5044715;28;20599;-39
2024/03/17 12:17:56;;;;;;;1.23;1.10;;;22.50;72.50;;;;;;5042044;28;20750;-39
2024/03/17 12:20:48;;;;;;;1.27;1.00;;;22.50;72.70;;;;;;5033174;28;20468;-39
2024/03/17 12:23:21;;;;;;;1.93;1.10;;;22.50;72.30;;;;;;5001890;28;20881;-39
2024/03/17 12:25:50;;;;;;;1.20;1.00;;;22.50;72.20;;;;;;5045673;28;20985;-39
2024/03/17 12:28:29;;;;;;;1.50;1.40;;;22.50;72.10;;;;;;5039646;28;20531;-39
2024/03/17 12:31:15;;;;;;;3.30;1.17;;;22.50;72.10;;;;;;5041426;28;20453;-39
2024/03/17 12:33:45;;;;;;;1.23;1.00;;;22.60;72.50;;;;;;5026756;28;20894;-40
2024/03/17 12:36:13;;;;;;;1.50;1.40;;;22.60;71.70;;;;;;5036104;28;20857;-40
2024/03/17 12:39:03;;;;;;;5.00;1.00;;;22.60;72.50;;;;;;5032669;28;21433;-39
2024/03/17 12:41:33;;;;;;;3.53;0.93;;;;;;;;;;5016316;28;20461;-45
2024/03/17 12:44:10;;;;;;;1.30;1.00;;;;;;;;;;5037196;28;20457;-43
2024/03/17 12:46:50;;;;;;;2.73;1.20;;;22.70;72.60;;;;;;5038327;28;20457;-42
2024/03/17 12:49:19;;;;;;;8.40;1.27;;;22.70;73.40;;;;;;5039073;28;20460;-46
2024/03/17 12:51:55;;;;;;;3.17;1.20;;;22.80;73.40;;;;;;5037651;28;21889;-46
2024/03/17 12:54:31;;;;;;;1.40;1.13;;;22.80;73.30;;;;;;5028044;28;20507;-48
2024/03/17 13:03:14;;;;;;;1.47;1.00;;;22.90;73.10;;;;;;4999585;28;20457;-46
2024/03/17 13:06:04;;;;;;;1.07;0.90;;;22.90;73.50;;;;;;5036525;28;20464;-44
2024/03/17 13:08:39;;;;;;;1.83;1.27;;;23.00;74.20;;;;;;5035834;28;20817;-45
2024/03/17 13:11:29;;;;;;;1.10;0.90;;;23.00;74.10;;;;;;5036534;28;20839;-48
2024/03/17 13:14:07;;;;;;;1.20;0.93;;;23.00;74.10;;;;;;5040092;28;20451;-46
2024/03/17 13:16:38;;;;;;;2.50;1.00;;;23.00;74.10;;;;;;5039103;28;20972;-45
2024/03/17 13:19:16;;;;;;;1.10;0.83;;;23.00;73.90;;;;;;5033466;28;20456;-44
2024/03/17 13:21:49;;;;;;;1.50;1.17;;;23.00;73.60;;;;;;5036787;28;20813;-44
2024/03/17 13:24:26;;;;;;;;;;;;;;;;;;;;;
2024/03/17 13:27:05;;;;;;;1.30;1.07;;;23.10;73.90;;;;;;5026277;28;21051;-42
2024/03/17 13:29:46;;;;;;;;;;;;;;;;;;;;;
2024/03/17 13:32:21;;;;;;;1.10;0.90;;;23.10;74.00;;;;;;5031340;28;20908;-47
2024/03/17 13:35:04;;;;;;;1.17;1.03;;;23.10;73.80;;;;;;5041496;28;20475;-42
2024/03/17 13:37:36;;;;;;;1.67;1.07;;;23.10;73.50;;;;;;5037769;28;20594;-45
2024/03/17 13:40:05;;;;;;;1.50;1.30;;;23.10;73.00;;;;;;5041270;28;20522;-45